sensor_id;sensor_type;location;lat;lon;timestamp;P1;durP1;ratioP1;P2;durP2;ratioP2
14235;SDS011;7202;50.718;7.072;2023-09-18T00:02:21;8.90;;;5.82;;
14235;SDS011;7202;50.718;7.072;2023-09-18T00:04:51;9.02;;;5.85;;
14235;SDS011;7202;50.718;7.072;2023-09-18T00:07:20;8.15;;;5.10;;
14235;SDS011;7202;50.718;7.072;2023-09-18T00:09:49;8.88;;;5.80;;
14235;SDS011;7202;50.718;7.072;2023-09-18T00:12:18;9.55;;;5.30;;
14235;SDS011;7202;50.718;7.072;2023-09-18T00:14:47;8.02;;;5.60;;
14235;SDS011;7202;50.718;7.072;2023-09-18T00:17:16;9.63;;;5.57;;
14235;SDS011;7202;50.718;7.072;2023-09-18T00:19:46;10.80;;;5.28;;
14235;SDS011;7202;50.718;7.072;2023-09-18T00:22:16;9.75;;;5.35;;
14235;SDS011;7202;50.718;7.072;2023-09-18T00:24:44;10.30;;;5.53;;
14235;SDS011;7202;50.718;7.072;2023-09-18T00:27:13;8.27;;;5.47;;
14235;SDS011;7202;50.718;7.072;2023-09-18T00:29:42;9.05;;;5.68;;
14235;SDS011;7202;50.718;7.072;2023-09-18T00:32:11;9.60;;;5.25;;
14235;SDS011;7202;50.718;7.072;2023-09-18T00:34:40;8.43;;;5.78;;
14235;SDS011;7202;50.718;7.072;2023-09-18T00:37:08;7.25;;;5.25;;
14235;SDS011;7202;50.718;7.072;2023-09-18T00:39:41;7.35;;;5.20;;
14235;SDS011;7202;50.718;7.072;2023-09-18T00:42:10;9.63;;;5.60;;
14235;SDS011;7202;50.718;7.072;2023-09-18T00:44:40;9.52;;;5.63;;
14235;SDS011;7202;50.718;7.072;2023-09-18T00:47:11;8.57;;;5.70;;
14235;SDS011;7202;50.718;7.072;2023-09-18T00:49:42;8.65;;;6.00;;
14235;SDS011;7202;50.718;7.072;2023-09-18T00:52:14;6.68;;;5.25;;
14235;SDS011;7202;50.718;7.072;2023-09-18T00:54:46;8.52;;;5.18;;
14235;SDS011;7202;50.718;7.072;2023-09-18T00:57:15;6.63;;;5.20;;
14235;SDS011;7202;50.718;7.072;2023-09-18T00:59:44;6.85;;;5.30;;
14235;SDS011;7202;50.718;7.072;2023-09-18T01:02:13;9.27;;;5.30;;
14235;SDS011;7202;50.718;7.072;2023-09-18T01:04:42;11.95;;;4.75;;
14235;SDS011;7202;50.718;7.072;2023-09-18T01:07:11;7.22;;;5.15;;
14235;SDS011;7202;50.718;7.072;2023-09-18T01:09:40;9.90;;;5.10;;
14235;SDS011;7202;50.718;7.072;2023-09-18T01:12:14;7.25;;;5.60;;
14235;SDS011;7202;50.718;7.072;2023-09-18T01:14:50;8.00;;;5.20;;
14235;SDS011;7202;50.718;7.072;2023-09-18T01:17:24;10.93;;;5.30;;
14235;SDS011;7202;50.718;7.072;2023-09-18T01:19:54;8.75;;;5.30;;
14235;SDS011;7202;50.718;7.072;2023-09-18T01:22:23;7.70;;;5.43;;
14235;SDS011;7202;50.718;7.072;2023-09-18T01:24:53;9.55;;;4.88;;
14235;SDS011;7202;50.718;7.072;2023-09-18T01:27:21;7.55;;;4.93;;
14235;SDS011;7202;50.718;7.072;2023-09-18T01:29:50;4.75;;;4.25;;
14235;SDS011;7202;50.718;7.072;2023-09-18T01:32:20;6.55;;;5.07;;
14235;SDS011;7202;50.718;7.072;2023-09-18T01:34:53;7.40;;;5.07;;
14235;SDS011;7202;50.718;7.072;2023-09-18T01:37:25;14.57;;;5.80;;
14235;SDS011;7202;50.718;7.072;2023-09-18T01:39:58;9.05;;;4.88;;
14235;SDS011;7202;50.718;7.072;2023-09-18T01:42:27;8.10;;;5.07;;
14235;SDS011;7202;50.718;7.072;2023-09-18T01:44:56;6.88;;;4.30;;
14235;SDS011;7202;50.718;7.072;2023-09-18T01:47:25;9.73;;;5.00;;
14235;SDS011;7202;50.718;7.072;2023-09-18T01:49:54;12.38;;;5.22;;
14235;SDS011;7202;50.718;7.072;2023-09-18T01:52:23;8.43;;;4.65;;
14235;SDS011;7202;50.718;7.072;2023-09-18T01:54:52;8.02;;;5.03;;
14235;SDS011;7202;50.718;7.072;2023-09-18T01:57:22;5.68;;;4.25;;
14235;SDS011;7202;50.718;7.072;2023-09-18T01:59:50;12.68;;;4.75;;
14235;SDS011;7202;50.718;7.072;2023-09-18T02:02:19;9.02;;;5.22;;
14235;SDS011;7202;50.718;7.072;2023-09-18T02:05:02;9.05;;;4.97;;
14235;SDS011;7202;50.718;7.072;2023-09-18T02:07:36;10.80;;;5.03;;
14235;SDS011;7202;50.718;7.072;2023-09-18T02:10:05;10.23;;;4.80;;
14235;SDS011;7202;50.718;7.072;2023-09-18T02:12:35;8.65;;;4.15;;
14235;SDS011;7202;50.718;7.072;2023-09-18T02:15:04;7.60;;;4.45;;
14235;SDS011;7202;50.718;7.072;2023-09-18T02:17:33;10.13;;;4.35;;
14235;SDS011;7202;50.718;7.072;2023-09-18T02:20:02;11.13;;;4.65;;
14235;SDS011;7202;50.718;7.072;2023-09-18T02:22:38;8.10;;;4.45;;
14235;SDS011;7202;50.718;7.072;2023-09-18T02:25:08;7.88;;;4.00;;
14235;SDS011;7202;50.718;7.072;2023-09-18T02:27:38;11.43;;;4.95;;
14235;SDS011;7202;50.718;7.072;2023-09-18T02:30:06;9.20;;;5.03;;
14235;SDS011;7202;50.718;7.072;2023-09-18T02:32:36;12.07;;;4.90;;
14235;SDS011;7202;50.718;7.072;2023-09-18T02:35:06;7.32;;;4.30;;
14235;SDS011;7202;50.718;7.072;2023-09-18T02:37:35;12.38;;;4.82;;
14235;SDS011;7202;50.718;7.072;2023-09-18T02:40:04;10.52;;;4.97;;
14235;SDS011;7202;50.718;7.072;2023-09-18T02:42:34;9.23;;;4.85;;
14235;SDS011;7202;50.718;7.072;2023-09-18T02:45:05;11.77;;;5.72;;
14235;SDS011;7202;50.718;7.072;2023-09-18T02:47:35;7.82;;;5.00;;
14235;SDS011;7202;50.718;7.072;2023-09-18T02:50:05;10.35;;;5.47;;
14235;SDS011;7202;50.718;7.072;2023-09-18T02:52:34;17.77;;;5.65;;
14235;SDS011;7202;50.718;7.072;2023-09-18T02:55:03;9.63;;;5.43;;
14235;SDS011;7202;50.718;7.072;2023-09-18T02:57:32;18.27;;;5.70;;
14235;SDS011;7202;50.718;7.072;2023-09-18T03:00:01;9.70;;;5.88;;
14235;SDS011;7202;50.718;7.072;2023-09-18T03:02:32;11.68;;;5.50;;
14235;SDS011;7202;50.718;7.072;2023-09-18T03:05:01;16.13;;;5.57;;
14235;SDS011;7202;50.718;7.072;2023-09-18T03:07:30;10.23;;;4.90;;
14235;SDS011;7202;50.718;7.072;2023-09-18T03:09:58;9.40;;;5.03;;
14235;SDS011;7202;50.718;7.072;2023-09-18T03:12:27;11.57;;;5.53;;
14235;SDS011;7202;50.718;7.072;2023-09-18T03:14:56;12.68;;;4.65;;
14235;SDS011;7202;50.718;7.072;2023-09-18T03:17:24;8.18;;;4.57;;
14235;SDS011;7202;50.718;7.072;2023-09-18T03:19:54;10.40;;;4.57;;
14235;SDS011;7202;50.718;7.072;2023-09-18T03:22:23;13.32;;;4.95;;
14235;SDS011;7202;50.718;7.072;2023-09-18T03:24:52;13.15;;;5.05;;
14235;SDS011;7202;50.718;7.072;2023-09-18T03:27:21;11.60;;;4.80;;
14235;SDS011;7202;50.718;7.072;2023-09-18T03:29:55;11.00;;;4.43;;
14235;SDS011;7202;50.718;7.072;2023-09-18T03:32:24;9.82;;;4.20;;
14235;SDS011;7202;50.718;7.072;2023-09-18T03:34:54;7.75;;;4.65;;
14235;SDS011;7202;50.718;7.072;2023-09-18T03:37:23;8.30;;;4.63;;
14235;SDS011;7202;50.718;7.072;2023-09-18T03:39:52;8.23;;;4.50;;
14235;SDS011;7202;50.718;7.072;2023-09-18T03:42:20;9.88;;;4.45;;
14235;SDS011;7202;50.718;7.072;2023-09-18T03:44:49;12.05;;;4.63;;
14235;SDS011;7202;50.718;7.072;2023-09-18T03:47:17;7.45;;;4.75;;
14235;SDS011;7202;50.718;7.072;2023-09-18T03:49:46;8.90;;;4.65;;
14235;SDS011;7202;50.718;7.072;2023-09-18T03:52:16;13.13;;;5.05;;
14235;SDS011;7202;50.718;7.072;2023-09-18T03:54:45;12.57;;;5.38;;
14235;SDS011;7202;50.718;7.072;2023-09-18T03:57:13;10.52;;;5.25;;
14235;SDS011;7202;50.718;7.072;2023-09-18T03:59:42;15.70;;;5.32;;
14235;SDS011;7202;50.718;7.072;2023-09-18T04:02:11;13.75;;;5.18;;
14235;SDS011;7202;50.718;7.072;2023-09-18T04:04:39;12.80;;;5.68;;
14235;SDS011;7202;50.718;7.072;2023-09-18T04:07:08;11.82;;;5.07;;
14235;SDS011;7202;50.718;7.072;2023-09-18T04:09:38;11.10;;;4.90;;
14235;SDS011;7202;50.718;7.072;2023-09-18T04:12:07;12.57;;;5.38;;
14235;SDS011;7202;50.718;7.072;2023-09-18T04:14:36;10.23;;;4.43;;
14235;SDS011;7202;50.718;7.072;2023-09-18T04:17:05;12.18;;;5.22;;
14235;SDS011;7202;50.718;7.072;2023-09-18T04:19:34;9.50;;;4.85;;
14235;SDS011;7202;50.718;7.072;2023-09-18T04:22:02;7.78;;;4.40;;
14235;SDS011;7202;50.718;7.072;2023-09-18T04:24:31;10.95;;;4.35;;
14235;SDS011;7202;50.718;7.072;2023-09-18T04:27:01;11.65;;;4.70;;
14235;SDS011;7202;50.718;7.072;2023-09-18T04:29:31;7.60;;;4.90;;
14235;SDS011;7202;50.718;7.072;2023-09-18T04:31:59;11.95;;;5.60;;
14235;SDS011;7202;50.718;7.072;2023-09-18T04:34:28;14.60;;;4.63;;
14235;SDS011;7202;50.718;7.072;2023-09-18T04:36:57;12.10;;;5.03;;
14235;SDS011;7202;50.718;7.072;2023-09-18T04:39:25;11.20;;;5.20;;
14235;SDS011;7202;50.718;7.072;2023-09-18T04:41:56;14.88;;;5.07;;
14235;SDS011;7202;50.718;7.072;2023-09-18T04:44:27;7.80;;;4.32;;
14235;SDS011;7202;50.718;7.072;2023-09-18T04:46:56;10.25;;;4.97;;
14235;SDS011;7202;50.718;7.072;2023-09-18T04:49:25;9.60;;;4.22;;
14235;SDS011;7202;50.718;7.072;2023-09-18T04:51:55;8.90;;;4.40;;
14235;SDS011;7202;50.718;7.072;2023-09-18T04:54:23;10.18;;;4.18;;
14235;SDS011;7202;50.718;7.072;2023-09-18T04:56:52;9.20;;;4.38;;
14235;SDS011;7202;50.718;7.072;2023-09-18T04:59:21;8.70;;;4.05;;
14235;SDS011;7202;50.718;7.072;2023-09-18T05:01:51;14.82;;;4.50;;
14235;SDS011;7202;50.718;7.072;2023-09-18T05:04:20;9.05;;;4.32;;
14235;SDS011;7202;50.718;7.072;2023-09-18T05:06:48;9.80;;;4.10;;
14235;SDS011;7202;50.718;7.072;2023-09-18T05:09:17;11.43;;;4.30;;
14235;SDS011;7202;50.718;7.072;2023-09-18T05:11:45;15.48;;;4.30;;
14235;SDS011;7202;50.718;7.072;2023-09-18T05:14:16;6.90;;;4.13;;
14235;SDS011;7202;50.718;7.072;2023-09-18T05:16:44;8.02;;;4.15;;
14235;SDS011;7202;50.718;7.072;2023-09-18T05:19:14;8.20;;;3.70;;
14235;SDS011;7202;50.718;7.072;2023-09-18T05:21:43;8.20;;;3.60;;
14235;SDS011;7202;50.718;7.072;2023-09-18T05:24:11;8.00;;;3.70;;
14235;SDS011;7202;50.718;7.072;2023-09-18T05:26:40;9.63;;;3.20;;
14235;SDS011;7202;50.718;7.072;2023-09-18T05:29:08;6.53;;;3.25;;
14235;SDS011;7202;50.718;7.072;2023-09-18T05:31:37;9.48;;;3.17;;
14235;SDS011;7202;50.718;7.072;2023-09-18T05:34:25;7.47;;;3.20;;
14235;SDS011;7202;50.718;7.072;2023-09-18T05:37:13;8.07;;;2.83;;
14235;SDS011;7202;50.718;7.072;2023-09-18T05:39:42;7.13;;;2.90;;
14235;SDS011;7202;50.718;7.072;2023-09-18T05:42:11;5.47;;;2.78;;
14235;SDS011;7202;50.718;7.072;2023-09-18T05:44:40;7.20;;;3.25;;
14235;SDS011;7202;50.718;7.072;2023-09-18T05:47:09;8.93;;;2.60;;
14235;SDS011;7202;50.718;7.072;2023-09-18T05:49:40;7.15;;;2.83;;
14235;SDS011;7202;50.718;7.072;2023-09-18T05:52:08;5.20;;;2.70;;
14235;SDS011;7202;50.718;7.072;2023-09-18T05:54:37;4.22;;;2.53;;
14235;SDS011;7202;50.718;7.072;2023-09-18T05:57:05;10.80;;;2.97;;
14235;SDS011;7202;50.718;7.072;2023-09-18T05:59:34;8.13;;;3.05;;
14235;SDS011;7202;50.718;7.072;2023-09-18T06:02:05;9.40;;;2.83;;
14235;SDS011;7202;50.718;7.072;2023-09-18T06:04:34;6.13;;;2.80;;
14235;SDS011;7202;50.718;7.072;2023-09-18T06:07:05;11.65;;;3.70;;
14235;SDS011;7202;50.718;7.072;2023-09-18T06:09:33;12.95;;;2.88;;
14235;SDS011;7202;50.718;7.072;2023-09-18T06:12:02;5.72;;;2.15;;
14235;SDS011;7202;50.718;7.072;2023-09-18T06:14:32;7.72;;;2.63;;
14235;SDS011;7202;50.718;7.072;2023-09-18T06:17:02;11.07;;;3.65;;
14235;SDS011;7202;50.718;7.072;2023-09-18T06:19:31;5.68;;;2.25;;
14235;SDS011;7202;50.718;7.072;2023-09-18T06:22:00;4.75;;;2.15;;
14235;SDS011;7202;50.718;7.072;2023-09-18T06:24:31;4.10;;;1.90;;
14235;SDS011;7202;50.718;7.072;2023-09-18T06:27:00;4.57;;;2.22;;
14235;SDS011;7202;50.718;7.072;2023-09-18T06:29:28;7.28;;;2.13;;
14235;SDS011;7202;50.718;7.072;2023-09-18T06:31:57;6.22;;;2.13;;
14235;SDS011;7202;50.718;7.072;2023-09-18T06:34:25;6.70;;;2.13;;
14235;SDS011;7202;50.718;7.072;2023-09-18T06:36:55;7.82;;;2.10;;
14235;SDS011;7202;50.718;7.072;2023-09-18T06:39:23;9.30;;;2.13;;
14235;SDS011;7202;50.718;7.072;2023-09-18T06:41:54;9.38;;;2.08;;
14235;SDS011;7202;50.718;7.072;2023-09-18T06:44:23;4.10;;;2.00;;
14235;SDS011;7202;50.718;7.072;2023-09-18T06:46:52;7.82;;;1.85;;
14235;SDS011;7202;50.718;7.072;2023-09-18T06:49:39;6.20;;;2.03;;
14235;SDS011;7202;50.718;7.072;2023-09-18T06:52:28;4.50;;;1.70;;
14235;SDS011;7202;50.718;7.072;2023-09-18T06:54:56;5.95;;;2.05;;
14235;SDS011;7202;50.718;7.072;2023-09-18T06:57:27;6.30;;;1.88;;
14235;SDS011;7202;50.718;7.072;2023-09-18T06:59:56;9.60;;;2.58;;
14235;SDS011;7202;50.718;7.072;2023-09-18T07:02:24;3.28;;;2.00;;
14235;SDS011;7202;50.718;7.072;2023-09-18T07:04:54;5.35;;;1.60;;
14235;SDS011;7202;50.718;7.072;2023-09-18T07:07:22;3.08;;;1.65;;
14235;SDS011;7202;50.718;7.072;2023-09-18T07:09:52;6.65;;;2.05;;
14235;SDS011;7202;50.718;7.072;2023-09-18T07:12:24;5.32;;;1.83;;
14235;SDS011;7202;50.718;7.072;2023-09-18T07:14:54;7.20;;;2.25;;
14235;SDS011;7202;50.718;7.072;2023-09-18T07:17:23;3.17;;;1.58;;
14235;SDS011;7202;50.718;7.072;2023-09-18T07:19:51;11.35;;;3.45;;
14235;SDS011;7202;50.718;7.072;2023-09-18T07:22:20;13.88;;;2.33;;
14235;SDS011;7202;50.718;7.072;2023-09-18T07:24:48;5.38;;;2.40;;
14235;SDS011;7202;50.718;7.072;2023-09-18T07:27:17;2.97;;;1.70;;
14235;SDS011;7202;50.718;7.072;2023-09-18T07:29:46;5.03;;;1.65;;
14235;SDS011;7202;50.718;7.072;2023-09-18T07:32:16;4.80;;;1.67;;
14235;SDS011;7202;50.718;7.072;2023-09-18T07:35:02;3.80;;;1.67;;
14235;SDS011;7202;50.718;7.072;2023-09-18T07:37:32;2.42;;;1.38;;
14235;SDS011;7202;50.718;7.072;2023-09-18T07:40:02;4.07;;;1.65;;
14235;SDS011;7202;50.718;7.072;2023-09-18T07:42:32;2.17;;;1.50;;
14235;SDS011;7202;50.718;7.072;2023-09-18T07:45:00;4.40;;;1.60;;
14235;SDS011;7202;50.718;7.072;2023-09-18T07:47:31;4.10;;;1.63;;
14235;SDS011;7202;50.718;7.072;2023-09-18T07:50:00;6.35;;;1.80;;
14235;SDS011;7202;50.718;7.072;2023-09-18T07:52:28;6.53;;;1.85;;
14235;SDS011;7202;50.718;7.072;2023-09-18T07:54:58;3.60;;;1.70;;
14235;SDS011;7202;50.718;7.072;2023-09-18T07:57:27;4.93;;;2.20;;
14235;SDS011;7202;50.718;7.072;2023-09-18T07:59:57;5.05;;;1.88;;
14235;SDS011;7202;50.718;7.072;2023-09-18T08:02:26;7.13;;;1.85;;
14235;SDS011;7202;50.718;7.072;2023-09-18T08:04:57;3.65;;;1.60;;
14235;SDS011;7202;50.718;7.072;2023-09-18T08:07:26;4.22;;;1.48;;
14235;SDS011;7202;50.718;7.072;2023-09-18T08:09:54;3.58;;;1.80;;
14235;SDS011;7202;50.718;7.072;2023-09-18T08:12:23;3.22;;;1.65;;
14235;SDS011;7202;50.718;7.072;2023-09-18T08:14:52;4.68;;;1.60;;
14235;SDS011;7202;50.718;7.072;2023-09-18T08:17:21;4.65;;;1.85;;
14235;SDS011;7202;50.718;7.072;2023-09-18T08:19:50;6.55;;;1.60;;
14235;SDS011;7202;50.718;7.072;2023-09-18T08:22:21;2.42;;;1.42;;
14235;SDS011;7202;50.718;7.072;2023-09-18T08:24:50;3.83;;;1.80;;
14235;SDS011;7202;50.718;7.072;2023-09-18T08:27:19;6.75;;;1.90;;
14235;SDS011;7202;50.718;7.072;2023-09-18T08:29:48;4.20;;;1.60;;
14235;SDS011;7202;50.718;7.072;2023-09-18T08:32:17;6.28;;;1.58;;
14235;SDS011;7202;50.718;7.072;2023-09-18T08:34:48;4.97;;;1.70;;
14235;SDS011;7202;50.718;7.072;2023-09-18T08:37:16;4.40;;;1.73;;
14235;SDS011;7202;50.718;7.072;2023-09-18T08:39:48;2.42;;;1.67;;
14235;SDS011;7202;50.718;7.072;2023-09-18T08:42:16;5.85;;;1.90;;
14235;SDS011;7202;50.718;7.072;2023-09-18T08:44:47;5.47;;;2.08;;
14235;SDS011;7202;50.718;7.072;2023-09-18T08:47:19;4.78;;;1.80;;
14235;SDS011;7202;50.718;7.072;2023-09-18T08:49:48;4.70;;;1.92;;
14235;SDS011;7202;50.718;7.072;2023-09-18T08:52:19;4.32;;;1.48;;
14235;SDS011;7202;50.718;7.072;2023-09-18T08:54:50;5.40;;;2.08;;
14235;SDS011;7202;50.718;7.072;2023-09-18T08:57:19;3.40;;;1.70;;
14235;SDS011;7202;50.718;7.072;2023-09-18T08:59:48;3.83;;;1.80;;
14235;SDS011;7202;50.718;7.072;2023-09-18T09:02:20;4.80;;;1.67;;
14235;SDS011;7202;50.718;7.072;2023-09-18T09:04:49;3.08;;;1.35;;
14235;SDS011;7202;50.718;7.072;2023-09-18T09:07:19;4.75;;;1.85;;
14235;SDS011;7202;50.718;7.072;2023-09-18T09:09:47;2.85;;;1.45;;
14235;SDS011;7202;50.718;7.072;2023-09-18T09:12:17;1.90;;;1.58;;
14235;SDS011;7202;50.718;7.072;2023-09-18T09:15:16;3.60;;;1.80;;
14235;SDS011;7202;50.718;7.072;2023-09-18T09:17:45;5.07;;;2.17;;
14235;SDS011;7202;50.718;7.072;2023-09-18T09:20:14;4.18;;;1.50;;
14235;SDS011;7202;50.718;7.072;2023-09-18T09:22:45;4.00;;;1.50;;
14235;SDS011;7202;50.718;7.072;2023-09-18T09:25:23;2.88;;;1.90;;
14235;SDS011;7202;50.718;7.072;2023-09-18T09:27:55;4.85;;;1.67;;
14235;SDS011;7202;50.718;7.072;2023-09-18T09:30:24;3.50;;;1.60;;
14235;SDS011;7202;50.718;7.072;2023-09-18T09:32:54;8.45;;;1.73;;
14235;SDS011;7202;50.718;7.072;2023-09-18T09:35:24;4.82;;;1.42;;
14235;SDS011;7202;50.718;7.072;2023-09-18T09:37:56;3.13;;;1.30;;
14235;SDS011;7202;50.718;7.072;2023-09-18T09:40:28;3.13;;;1.40;;
14235;SDS011;7202;50.718;7.072;2023-09-18T09:42:59;1.92;;;1.40;;
14235;SDS011;7202;50.718;7.072;2023-09-18T09:45:31;3.75;;;1.60;;
14235;SDS011;7202;50.718;7.072;2023-09-18T09:48:02;3.35;;;1.40;;
14235;SDS011;7202;50.718;7.072;2023-09-18T09:50:33;2.53;;;1.45;;
14235;SDS011;7202;50.718;7.072;2023-09-18T09:53:12;2.13;;;1.45;;
14235;SDS011;7202;50.718;7.072;2023-09-18T09:55:42;3.45;;;1.77;;
14235;SDS011;7202;50.718;7.072;2023-09-18T09:58:12;6.10;;;1.42;;
14235;SDS011;7202;50.718;7.072;2023-09-18T10:00:42;4.55;;;1.48;;
14235;SDS011;7202;50.718;7.072;2023-09-18T10:03:16;7.72;;;1.52;;
14235;SDS011;7202;50.718;7.072;2023-09-18T10:05:46;3.53;;;1.70;;
14235;SDS011;7202;50.718;7.072;2023-09-18T10:08:19;4.38;;;1.73;;
14235;SDS011;7202;50.718;7.072;2023-09-18T10:10:52;2.75;;;1.67;;
14235;SDS011;7202;50.718;7.072;2023-09-18T10:13:27;3.70;;;1.50;;
14235;SDS011;7202;50.718;7.072;2023-09-18T10:16:00;3.85;;;1.20;;
14235;SDS011;7202;50.718;7.072;2023-09-18T10:18:35;1.77;;;1.20;;
14235;SDS011;7202;50.718;7.072;2023-09-18T10:21:14;6.03;;;1.67;;
14235;SDS011;7202;50.718;7.072;2023-09-18T10:23:50;2.08;;;1.40;;
14235;SDS011;7202;50.718;7.072;2023-09-18T10:26:25;6.32;;;1.20;;
14235;SDS011;7202;50.718;7.072;2023-09-18T10:28:58;4.45;;;1.35;;
14235;SDS011;7202;50.718;7.072;2023-09-18T10:31:30;1.95;;;1.00;;
14235;SDS011;7202;50.718;7.072;2023-09-18T10:34:01;3.70;;;1.45;;
14235;SDS011;7202;50.718;7.072;2023-09-18T10:36:31;2.47;;;1.08;;
14235;SDS011;7202;50.718;7.072;2023-09-18T10:39:02;2.17;;;1.35;;
14235;SDS011;7202;50.718;7.072;2023-09-18T10:41:35;1.90;;;1.17;;
14235;SDS011;7202;50.718;7.072;2023-09-18T10:44:06;3.80;;;1.20;;
14235;SDS011;7202;50.718;7.072;2023-09-18T10:46:35;3.55;;;1.23;;
14235;SDS011;7202;50.718;7.072;2023-09-18T10:49:04;3.25;;;1.42;;
14235;SDS011;7202;50.718;7.072;2023-09-18T10:51:33;1.20;;;1.00;;
14235;SDS011;7202;50.718;7.072;2023-09-18T10:54:03;2.03;;;1.20;;
14235;SDS011;7202;50.718;7.072;2023-09-18T10:56:32;2.45;;;1.38;;
14235;SDS011;7202;50.718;7.072;2023-09-18T10:59:02;3.80;;;1.33;;
14235;SDS011;7202;50.718;7.072;2023-09-18T11:01:37;1.65;;;1.20;;
14235;SDS011;7202;50.718;7.072;2023-09-18T11:04:06;4.75;;;0.98;;
14235;SDS011;7202;50.718;7.072;2023-09-18T11:09:40;1.73;;;1.08;;
14235;SDS011;7202;50.718;7.072;2023-09-18T11:12:10;3.55;;;1.10;;
14235;SDS011;7202;50.718;7.072;2023-09-18T11:14:47;3.35;;;1.35;;
14235;SDS011;7202;50.718;7.072;2023-09-18T11:17:29;5.30;;;1.20;;
14235;SDS011;7202;50.718;7.072;2023-09-18T11:20:05;1.83;;;1.15;;
14235;SDS011;7202;50.718;7.072;2023-09-18T11:22:39;3.72;;;1.40;;
14235;SDS011;7202;50.718;7.072;2023-09-18T11:28:14;5.63;;;1.40;;
14235;SDS011;7202;50.718;7.072;2023-09-18T11:30:51;3.15;;;1.20;;
14235;SDS011;7202;50.718;7.072;2023-09-18T11:33:33;1.55;;;1.20;;
14235;SDS011;7202;50.718;7.072;2023-09-18T11:36:04;1.23;;;1.13;;
14235;SDS011;7202;50.718;7.072;2023-09-18T11:38:35;2.30;;;1.73;;
14235;SDS011;7202;50.718;7.072;2023-09-18T11:41:25;3.45;;;1.30;;
14235;SDS011;7202;50.718;7.072;2023-09-18T11:47:21;3.83;;;1.45;;
14235;SDS011;7202;50.718;7.072;2023-09-18T11:49:55;1.70;;;1.13;;
14235;SDS011;7202;50.718;7.072;2023-09-18T11:52:27;2.75;;;1.65;;
14235;SDS011;7202;50.718;7.072;2023-09-18T11:54:58;3.60;;;1.48;;
14235;SDS011;7202;50.718;7.072;2023-09-18T11:57:27;3.53;;;1.45;;
14235;SDS011;7202;50.718;7.072;2023-09-18T11:59:56;1.25;;;1.10;;
14235;SDS011;7202;50.718;7.072;2023-09-18T12:02:38;2.17;;;1.20;;
14235;SDS011;7202;50.718;7.072;2023-09-18T12:05:11;2.10;;;1.30;;
14235;SDS011;7202;50.718;7.072;2023-09-18T12:07:43;3.17;;;1.00;;
14235;SDS011;7202;50.718;7.072;2023-09-18T12:10:13;4.18;;;1.27;;
14235;SDS011;7202;50.718;7.072;2023-09-18T12:12:44;4.80;;;1.40;;
14235;SDS011;7202;50.718;7.072;2023-09-18T12:15:13;2.13;;;1.30;;
14235;SDS011;7202;50.718;7.072;2023-09-18T12:17:42;3.45;;;1.38;;
14235;SDS011;7202;50.718;7.072;2023-09-18T12:20:17;4.35;;;1.20;;
14235;SDS011;7202;50.718;7.072;2023-09-18T12:22:47;1.52;;;1.10;;
14235;SDS011;7202;50.718;7.072;2023-09-18T12:25:16;3.33;;;0.90;;
14235;SDS011;7202;50.718;7.072;2023-09-18T12:27:46;2.28;;;1.33;;
14235;SDS011;7202;50.718;7.072;2023-09-18T12:30:20;1.38;;;0.95;;
14235;SDS011;7202;50.718;7.072;2023-09-18T12:32:51;4.38;;;1.38;;
14235;SDS011;7202;50.718;7.072;2023-09-18T12:35:22;2.10;;;1.30;;
14235;SDS011;7202;50.718;7.072;2023-09-18T12:37:56;2.30;;;1.27;;
14235;SDS011;7202;50.718;7.072;2023-09-18T12:40:26;3.00;;;1.30;;
14235;SDS011;7202;50.718;7.072;2023-09-18T12:42:57;2.25;;;1.27;;
14235;SDS011;7202;50.718;7.072;2023-09-18T12:45:26;1.98;;;1.38;;
14235;SDS011;7202;50.718;7.072;2023-09-18T12:47:57;7.47;;;1.33;;
14235;SDS011;7202;50.718;7.072;2023-09-18T12:50:27;1.77;;;1.30;;
14235;SDS011;7202;50.718;7.072;2023-09-18T12:53:06;4.80;;;1.83;;
14235;SDS011;7202;50.718;7.072;2023-09-18T12:55:36;2.08;;;1.27;;
14235;SDS011;7202;50.718;7.072;2023-09-18T12:58:05;1.63;;;1.20;;
14235;SDS011;7202;50.718;7.072;2023-09-18T13:00:35;2.35;;;1.20;;
14235;SDS011;7202;50.718;7.072;2023-09-18T13:03:04;4.25;;;1.73;;
14235;SDS011;7202;50.718;7.072;2023-09-18T13:05:34;2.38;;;1.33;;
14235;SDS011;7202;50.718;7.072;2023-09-18T13:08:04;2.50;;;1.40;;
14235;SDS011;7202;50.718;7.072;2023-09-18T13:13:20;2.95;;;1.30;;
14235;SDS011;7202;50.718;7.072;2023-09-18T13:15:52;5.13;;;1.40;;
14235;SDS011;7202;50.718;7.072;2023-09-18T13:18:26;1.55;;;1.40;;
14235;SDS011;7202;50.718;7.072;2023-09-18T13:20:57;1.95;;;1.40;;
14235;SDS011;7202;50.718;7.072;2023-09-18T13:23:29;1.90;;;1.35;;
14235;SDS011;7202;50.718;7.072;2023-09-18T13:25:58;2.67;;;1.30;;
14235;SDS011;7202;50.718;7.072;2023-09-18T13:28:28;2.40;;;1.60;;
14235;SDS011;7202;50.718;7.072;2023-09-18T13:30:58;2.97;;;1.42;;
14235;SDS011;7202;50.718;7.072;2023-09-18T13:33:27;1.42;;;1.17;;
14235;SDS011;7202;50.718;7.072;2023-09-18T13:35:58;2.10;;;1.50;;
14235;SDS011;7202;50.718;7.072;2023-09-18T13:38:27;1.80;;;1.40;;
14235;SDS011;7202;50.718;7.072;2023-09-18T13:40:56;1.65;;;1.30;;
14235;SDS011;7202;50.718;7.072;2023-09-18T13:43:25;1.67;;;1.13;;
14235;SDS011;7202;50.718;7.072;2023-09-18T13:45:54;2.22;;;1.30;;
14235;SDS011;7202;50.718;7.072;2023-09-18T13:48:26;2.00;;;1.40;;
14235;SDS011;7202;50.718;7.072;2023-09-18T13:50:55;3.17;;;1.40;;
14235;SDS011;7202;50.718;7.072;2023-09-18T13:53:25;3.85;;;1.50;;
14235;SDS011;7202;50.718;7.072;2023-09-18T13:55:55;3.83;;;1.52;;
14235;SDS011;7202;50.718;7.072;2023-09-18T13:58:24;3.90;;;1.40;;
14235;SDS011;7202;50.718;7.072;2023-09-18T14:00:53;1.92;;;1.25;;
14235;SDS011;7202;50.718;7.072;2023-09-18T14:03:21;2.97;;;1.30;;
14235;SDS011;7202;50.718;7.072;2023-09-18T14:05:51;2.83;;;1.35;;
14235;SDS011;7202;50.718;7.072;2023-09-18T14:08:21;3.65;;;1.40;;
14235;SDS011;7202;50.718;7.072;2023-09-18T14:10:49;3.13;;;1.23;;
14235;SDS011;7202;50.718;7.072;2023-09-18T14:13:18;1.67;;;1.17;;
14235;SDS011;7202;50.718;7.072;2023-09-18T14:15:47;2.67;;;1.30;;
14235;SDS011;7202;50.718;7.072;2023-09-18T14:18:18;1.52;;;1.15;;
14235;SDS011;7202;50.718;7.072;2023-09-18T14:20:47;2.63;;;1.60;;
14235;SDS011;7202;50.718;7.072;2023-09-18T14:23:16;1.58;;;1.30;;
14235;SDS011;7202;50.718;7.072;2023-09-18T14:25:46;2.00;;;1.00;;
14235;SDS011;7202;50.718;7.072;2023-09-18T14:28:14;2.47;;;1.20;;
14235;SDS011;7202;50.718;7.072;2023-09-18T14:30:43;1.60;;;1.20;;
14235;SDS011;7202;50.718;7.072;2023-09-18T14:33:12;1.88;;;1.20;;
14235;SDS011;7202;50.718;7.072;2023-09-18T14:35:41;2.17;;;1.35;;
14235;SDS011;7202;50.718;7.072;2023-09-18T14:38:10;2.90;;;1.20;;
14235;SDS011;7202;50.718;7.072;2023-09-18T14:40:40;1.85;;;1.30;;
14235;SDS011;7202;50.718;7.072;2023-09-18T14:43:11;2.45;;;1.30;;
14235;SDS011;7202;50.718;7.072;2023-09-18T14:45:39;2.63;;;1.48;;
14235;SDS011;7202;50.718;7.072;2023-09-18T14:48:08;4.90;;;1.35;;
14235;SDS011;7202;50.718;7.072;2023-09-18T14:50:37;3.13;;;1.35;;
14235;SDS011;7202;50.718;7.072;2023-09-18T14:53:05;3.10;;;1.38;;
14235;SDS011;7202;50.718;7.072;2023-09-18T14:55:35;2.33;;;1.20;;
14235;SDS011;7202;50.718;7.072;2023-09-18T14:58:04;2.13;;;1.30;;
14235;SDS011;7202;50.718;7.072;2023-09-18T15:00:34;2.72;;;1.35;;
14235;SDS011;7202;50.718;7.072;2023-09-18T15:03:03;1.52;;;1.30;;
14235;SDS011;7202;50.718;7.072;2023-09-18T15:05:32;1.98;;;1.20;;
14235;SDS011;7202;50.718;7.072;2023-09-18T15:08:01;2.72;;;1.40;;
14235;SDS011;7202;50.718;7.072;2023-09-18T15:10:30;4.15;;;1.10;;
14235;SDS011;7202;50.718;7.072;2023-09-18T15:12:58;2.60;;;1.38;;
14235;SDS011;7202;50.718;7.072;2023-09-18T15:15:27;1.60;;;1.17;;
14235;SDS011;7202;50.718;7.072;2023-09-18T15:17:57;2.60;;;1.33;;
14235;SDS011;7202;50.718;7.072;2023-09-18T15:20:26;3.30;;;1.58;;
14235;SDS011;7202;50.718;7.072;2023-09-18T15:22:55;1.52;;;1.15;;
14235;SDS011;7202;50.718;7.072;2023-09-18T15:25:24;1.50;;;1.20;;
14235;SDS011;7202;50.718;7.072;2023-09-18T15:27:52;2.08;;;1.38;;
14235;SDS011;7202;50.718;7.072;2023-09-18T15:30:21;1.20;;;1.10;;
14235;SDS011;7202;50.718;7.072;2023-09-18T15:32:52;2.15;;;1.48;;